Current | Forecast
Updated: 2:00 AM CET on October 19, 2017
Observed at Tozeur, Algeria
Temperature 70°F
Humidity 49%
Dew Point 50°F
Wind East at 8 mph
Pressure 30.04 in (Steady)
Conditions Scattered Clouds
Visibility 6.2 miles
UV 0 out of 16
Clouds Scattered Clouds (SCT) : 3000 ft
Yesterday's Maximum 82°F
Yesterday's Minimum 66°F approx.
Yesterday's Cooling Degree Days 9 approx.
Sunrise6:39 AM CET
Sunset5:50 PM CET
Moon Rise6:06 AM CET
Moon Set6:02 PM CET
Moon PhaseMoon Phase
Waning Crescent
Raw METARMETAR DTTZ 190100Z 08007KT 9999 SCT030 21/10 Q1017 NOSIG


Monday
. High: 102° F.
Tuesday
. High: 104° F.
Wednesday
. High: 105° F.
Thursday
. High: 105° F.
Friday
. High: 100° F.
Saturday
. High: 96° F.
Sunday
. High: 89° F.
Monday
. High: 91° F.

Units: English | Metric

Find the Weather for any City, State or Zipcode, or Country:

U.S. State List | Severe Weather | Tropical Storms | Ski Conditions
United States | Canada | Central America | South America | Asia | Europe | Australia | Africa | Islands

Weather Underground

© Copyright 2017
The Weather Company, LLC